Time;durP1;ratioP1;P1;durP2;ratioP2;P2;SDS_P1;SDS_P2;PMS_P1;PMS_P2;Temp;Humidity;BMP_temperature;BMP_pressure;BME280_temperature;BME280_humidity;BME280_pressure;Samples;Min_cycle;Max_cycle;Signal;HPM_P1;HPM_P2
2021/05/03 00:00:29;;;;;;;31.13;19.38;;;;;;;;;;4948382;28;20646;-55
2021/05/03 00:02:55;;;;;;;46.33;30.63;;;;;;;;;;4947140;28;20027;-55
2021/05/03 00:05:25;;;;;;;29.58;17.63;;;;;;;;;;4947318;28;20027;-54
2021/05/03 00:07:52;;;;;;;40.05;23.50;;;;;;;;;;4948066;28;20121;-55
2021/05/03 00:10:18;;;;;;;22.40;13.02;;;;;;;;;;4947143;28;20070;-55
2021/05/03 00:12:45;;;;;;;19.30;11.93;;;;;;;;;;4947141;28;20050;-54
2021/05/03 00:15:12;;;;;;;16.67;11.10;;;;;;;;;;4947487;28;20717;-55
2021/05/03 00:17:38;;;;;;;23.50;16.08;;;;;;;;;;4947896;28;20022;-54
2021/05/03 00:20:05;;;;;;;31.73;20.80;;;;;;;;;;4947218;28;20035;-53
2021/05/03 00:22:31;;;;;;;24.77;15.82;;;;;;;;;;4947139;28;20026;-53
2021/05/03 00:24:57;;;;;;;15.32;9.75;;;;;;;;;;4947096;28;20391;-54
2021/05/03 00:27:23;;;;;;;15.98;11.63;;;;;;;;;;4947206;28;20403;-54
2021/05/03 00:29:49;;;;;;;25.13;16.45;;;;;;;;;;4946858;28;20795;-55
2021/05/03 00:32:15;;;;;;;14.07;7.80;;;;;;;;;;4946936;28;20039;-54
2021/05/03 00:34:41;;;;;;;45.20;28.77;;;;;;;;;;4946768;28;20823;-55
2021/05/03 00:37:07;;;;;;;8.90;5.30;;;;;;;;;;4946908;28;20142;-54
2021/05/03 00:39:34;;;;;;;22.95;15.52;;;;;;;;;;4946726;28;20097;-55
2021/05/03 00:42:00;;;;;;;28.13;19.05;;;;;;;;;;4947510;28;20030;-53
2021/05/03 00:44:27;;;;;;;34.53;23.98;;;;;;;;;;4946660;28;20023;-54
2021/05/03 00:46:56;;;;;;;37.50;25.17;;;;;;;;;;4946393;28;20582;-55
2021/05/03 00:49:22;;;;;;;50.45;32.45;;;;;;;;;;4946248;28;20049;-56
2021/05/03 00:51:48;;;;;;;36.25;24.60;;;;;;;;;;4946642;28;20023;-56
2021/05/03 00:54:14;;;;;;;39.50;27.33;;;;;;;;;;4946532;28;20077;-54
2021/05/03 00:56:40;;;;;;;46.63;31.25;;;;;;;;;;4946318;28;20046;-53
2021/05/03 00:59:06;;;;;;;31.50;21.17;;;;;;;;;;4946311;28;20038;-55
2021/05/03 01:01:32;;;;;;;21.02;15.30;;;;;;;;;;4947305;28;20023;-56
2021/05/03 01:03:59;;;;;;;16.52;10.90;;;;;;;;;;4949146;28;20935;-57
2021/05/03 01:06:25;;;;;;;12.75;7.25;;;;;;;;;;4945846;28;20050;-56
2021/05/03 01:08:51;;;;;;;15.50;9.43;;;;;;;;;;4947426;28;20050;-58
2021/05/03 01:11:17;;;;;;;18.67;11.00;;;;;;;;;;4946200;28;20039;-59
2021/05/03 01:13:45;;;;;;;13.13;8.35;;;;;;;;;;4946298;28;20023;-58
2021/05/03 01:16:11;;;;;;;24.90;15.73;;;;;;;;;;4945929;28;20023;-57
2021/05/03 01:18:38;;;;;;;19.25;11.88;;;;;;;;;;4945908;28;20431;-60
2021/05/03 01:21:07;;;;;;;20.30;14.48;;;;;;;;;;4945971;28;20031;-58
2021/05/03 01:23:33;;;;;;;20.67;13.70;;;;;;;;;;4947128;28;20774;-58
2021/05/03 01:26:02;;;;;;;11.35;7.53;;;;;;;;;;4945927;28;20078;-57
2021/05/03 01:28:28;;;;;;;30.20;18.73;;;;;;;;;;4945793;28;20586;-56
2021/05/03 01:30:54;;;;;;;17.67;10.57;;;;;;;;;;4945146;28;20487;-56
2021/05/03 01:33:21;;;;;;;15.60;9.07;;;;;;;;;;4945664;28;20569;-57
2021/05/03 01:35:47;;;;;;;10.68;7.35;;;;;;;;;;4945536;28;20130;-56
2021/05/03 01:38:15;;;;;;;15.48;9.40;;;;;;;;;;4947180;28;20027;-56
2021/05/03 01:40:41;;;;;;;15.25;10.07;;;;;;;;;;4947050;28;20022;-58
2021/05/03 01:43:11;;;;;;;14.30;9.32;;;;;;;;;;4953997;28;20023;-53
2021/05/03 01:45:38;;;;;;;7.88;6.03;;;;;;;;;;4956096;29;20023;-53
2021/05/03 01:48:04;;;;;;;27.85;18.05;;;;;;;;;;4955863;29;20035;-54
2021/05/03 01:50:31;;;;;;;16.65;10.68;;;;;;;;;;4956114;29;20047;-53
2021/05/03 01:52:59;;;;;;;18.73;12.43;;;;;;;;;;4956095;29;20019;-54
2021/05/03 01:55:25;;;;;;;17.70;12.73;;;;;;;;;;4955931;29;20049;-53
2021/05/03 01:57:51;;;;;;;10.07;7.38;;;;;;;;;;4956045;28;20066;-52
2021/05/03 02:00:18;;;;;;;12.88;8.60;;;;;;;;;;4955942;29;20360;-54
2021/05/03 02:02:48;;;;;;;5.80;4.15;;;;;;;;;;4955709;29;20078;-53
2021/05/03 02:05:21;;;;;;;8.77;4.88;;;;;;;;;;4955995;29;20387;-49
2021/05/03 02:07:54;;;;;;;9.40;6.32;;;;;;;;;;4955657;29;20488;-50
2021/05/03 02:10:20;;;;;;;10.07;6.90;;;;;;;;;;4955728;29;20046;-53
2021/05/03 02:12:46;;;;;;;6.47;4.78;;;;;;;;;;4955620;28;20023;-53
2021/05/03 02:15:12;;;;;;;8.63;5.38;;;;;;;;;;4955658;28;20031;-50
2021/05/03 02:17:38;;;;;;;4.78;4.13;;;;;;;;;;4955454;28;20479;-53
2021/05/03 02:20:05;;;;;;;9.80;5.72;;;;;;;;;;4955618;29;20106;-54
2021/05/03 02:22:31;;;;;;;6.65;4.95;;;;;;;;;;4955646;29;20046;-51
2021/05/03 02:24:57;;;;;;;6.32;4.32;;;;;;;;;;4955467;29;20031;-53
2021/05/03 02:27:23;;;;;;;6.88;4.28;;;;;;;;;;4955386;29;20034;-54
2021/05/03 02:29:49;;;;;;;6.15;3.20;;;;;;;;;;4955448;29;20031;-53
2021/05/03 02:32:15;;;;;;;5.03;3.67;;;;;;;;;;4955408;29;20030;-50
2021/05/03 02:34:41;;;;;;;6.65;3.60;;;;;;;;;;4955530;28;20501;-54
2021/05/03 02:37:08;;;;;;;3.95;3.20;;;;;;;;;;4955788;29;20023;-51
2021/05/03 02:39:34;;;;;;;4.43;2.78;;;;;;;;;;4955733;29;20020;-54
2021/05/03 02:42:00;;;;;;;5.47;3.90;;;;;;;;;;4954522;28;20035;-54
2021/05/03 02:44:26;;;;;;;3.83;3.00;;;;;;;;;;4955807;28;20019;-54
2021/05/03 02:46:52;;;;;;;4.03;3.50;;;;;;;;;;4955260;29;20106;-54
2021/05/03 02:49:18;;;;;;;3.13;2.80;;;;;;;;;;4955198;29;20040;-54
2021/05/03 02:51:45;;;;;;;6.85;2.67;;;;;;;;;;4955204;28;20023;-54
2021/05/03 02:54:11;;;;;;;3.22;2.55;;;;;;;;;;4955215;29;20357;-50
2021/05/03 02:56:37;;;;;;;2.85;2.47;;;;;;;;;;4955247;29;20035;-54
2021/05/03 02:59:03;;;;;;;3.15;2.38;;;;;;;;;;4955079;29;20024;-54
2021/05/03 03:01:29;;;;;;;2.70;2.50;;;;;;;;;;4955197;29;20248;-55
2021/05/03 03:03:55;;;;;;;5.78;2.65;;;;;;;;;;4955314;29;20082;-55
2021/05/03 03:06:21;;;;;;;2.65;2.42;;;;;;;;;;4955169;29;20054;-55
2021/05/03 03:08:50;;;;;;;3.53;2.38;;;;;;;;;;4955320;29;20031;-55
2021/05/03 03:11:16;;;;;;;3.95;2.15;;;;;;;;;;4955215;29;20038;-54
2021/05/03 03:13:42;;;;;;;2.45;2.00;;;;;;;;;;4955187;29;20034;-52
2021/05/03 03:16:09;;;;;;;5.80;2.58;;;;;;;;;;4955230;29;20023;-54
2021/05/03 03:18:35;;;;;;;4.15;2.38;;;;;;;;;;4955106;28;20031;-54
2021/05/03 03:21:01;;;;;;;2.72;2.50;;;;;;;;;;4955157;29;20395;-54
2021/05/03 03:23:27;;;;;;;4.53;2.63;;;;;;;;;;4955139;28;20106;-54
2021/05/03 03:25:54;;;;;;;3.58;2.50;;;;;;;;;;4954995;28;20038;-54
2021/05/03 03:28:20;;;;;;;2.60;2.33;;;;;;;;;;4955656;28;20047;-55
2021/05/03 03:30:46;;;;;;;4.78;2.53;;;;;;;;;;4954998;29;20091;-55
2021/05/03 03:33:12;;;;;;;4.75;2.08;;;;;;;;;;4954841;29;20483;-54
2021/05/03 03:35:38;;;;;;;2.63;2.40;;;;;;;;;;4955025;29;20038;-55
2021/05/03 03:38:04;;;;;;;2.30;2.15;;;;;;;;;;4955054;29;20491;-56
2021/05/03 03:40:30;;;;;;;2.60;2.20;;;;;;;;;;4954831;29;20035;-52
2021/05/03 03:42:56;;;;;;;2.42;2.22;;;;;;;;;;4954858;28;20467;-55
2021/05/03 03:45:23;;;;;;;2.13;1.98;;;;;;;;;;4954973;29;20027;-55
2021/05/03 03:47:49;;;;;;;3.22;2.22;;;;;;;;;;4954745;28;20476;-56
2021/05/03 03:50:15;;;;;;;2.70;1.98;;;;;;;;;;4954769;29;20114;-55
2021/05/03 03:52:41;;;;;;;1.90;1.80;;;;;;;;;;4956175;28;20448;-54
2021/05/03 03:55:07;;;;;;;3.58;2.60;;;;;;;;;;4958557;28;20058;-54
2021/05/03 03:57:33;;;;;;;3.53;2.25;;;;;;;;;;4958188;29;20031;-54
2021/05/03 04:00:00;;;;;;;8.60;2.42;;;;;;;;;;4958180;28;20035;-54
2021/05/03 04:02:26;;;;;;;2.47;2.28;;;;;;;;;;4958232;29;20019;-53
2021/05/03 04:07:57;;;;;;;2.35;2.15;;;;;;;;;;4936960;29;20044;-54
2021/05/03 04:10:38;;;;;;;3.17;2.60;;;;;;;;;;4936719;29;20054;-54
2021/05/03 04:26:35;;;;;;;4.63;3.75;;;;;;;;;;4936472;29;20039;-54
2021/05/03 04:29:01;;;;;;;5.13;4.10;;;;;;;;;;4936411;29;20034;-54
2021/05/03 04:31:27;;;;;;;4.50;3.38;;;;;;;;;;4936281;29;20052;-54
2021/05/03 04:33:53;;;;;;;3.03;2.72;;;;;;;;;;4936362;29;20028;-53
2021/05/03 04:36:22;;;;;;;3.42;2.42;;;;;;;;;;4936394;29;20087;-57
2021/05/03 04:38:48;;;;;;;3.83;2.65;;;;;;;;;;4936305;28;20492;-55
2021/05/03 04:41:15;;;;;;;3.78;2.67;;;;;;;;;;4936341;29;20122;-50
2021/05/03 04:43:43;;;;;;;2.97;2.50;;;;;;;;;;4937034;28;20047;-53
2021/05/03 04:46:09;;;;;;;2.90;2.50;;;;;;;;;;4957154;28;20110;-54
2021/05/03 04:48:36;;;;;;;2.90;2.60;;;;;;;;;;4957235;29;20384;-55
2021/05/03 04:51:02;;;;;;;9.90;3.05;;;;;;;;;;4957152;29;20039;-54
2021/05/03 04:53:28;;;;;;;3.25;2.78;;;;;;;;;;4957332;29;20055;-54
2021/05/03 04:55:54;;;;;;;4.60;2.92;;;;;;;;;;4957269;29;20031;-53
2021/05/03 04:58:20;;;;;;;4.40;2.75;;;;;;;;;;4957329;29;20044;-55
2021/05/03 05:00:47;;;;;;;5.95;2.63;;;;;;;;;;4957051;29;20035;-54
2021/05/03 05:03:13;;;;;;;4.95;3.15;;;;;;;;;;4957148;28;20049;-54
2021/05/03 05:05:39;;;;;;;3.58;2.80;;;;;;;;;;4956471;29;20053;-54
2021/05/03 05:08:08;;;;;;;6.10;3.15;;;;;;;;;;4956738;29;20526;-54
2021/05/03 05:10:34;;;;;;;4.05;3.10;;;;;;;;;;4956788;29;20047;-54
2021/05/03 05:13:00;;;;;;;5.30;3.65;;;;;;;;;;4956811;29;20086;-54
2021/05/03 05:15:27;;;;;;;7.50;3.38;;;;;;;;;;4956843;28;20031;-55
2021/05/03 05:17:53;;;;;;;7.45;3.40;;;;;;;;;;4956524;29;20464;-54
2021/05/03 05:20:20;;;;;;;3.65;3.35;;;;;;;;;;4956741;29;20027;-55
2021/05/03 05:22:47;;;;;;;4.20;3.60;;;;;;;;;;4956546;29;20023;-54
2021/05/03 05:25:13;;;;;;;4.43;3.35;;;;;;;;;;4956716;29;20027;-54
2021/05/03 05:27:39;;;;;;;5.00;3.75;;;;;;;;;;4956542;29;20058;-50
2021/05/03 05:30:06;;;;;;;4.95;3.97;;;;;;;;;;4956490;29;20086;-55
2021/05/03 05:32:32;;;;;;;5.15;4.28;;;;;;;;;;4956703;29;20055;-55
2021/05/03 05:34:58;;;;;;;7.22;5.93;;;;;;;;;;4956393;29;20019;-56
2021/05/03 05:37:25;;;;;;;6.85;5.30;;;;;;;;;;4956488;29;20023;-55
2021/05/03 05:39:51;;;;;;;4.78;3.50;;;;;;;;;;4956455;29;20031;-54
2021/05/03 05:42:17;;;;;;;5.75;4.82;;;;;;;;;;4956371;29;20384;-55
2021/05/03 05:44:43;;;;;;;6.60;3.83;;;;;;;;;;4956235;28;20027;-54
2021/05/03 05:47:09;;;;;;;4.97;3.83;;;;;;;;;;4956453;29;20035;-55
2021/05/03 05:49:35;;;;;;;7.15;4.15;;;;;;;;;;4955984;29;20463;-54
2021/05/03 05:52:01;;;;;;;4.65;4.25;;;;;;;;;;4956346;29;20445;-53
2021/05/03 05:54:28;;;;;;;6.15;4.35;;;;;;;;;;4956072;28;20023;-50
2021/05/03 05:56:54;;;;;;;6.63;4.50;;;;;;;;;;4956044;29;20388;-55
2021/05/03 05:59:22;;;;;;;5.85;5.25;;;;;;;;;;4956002;29;20046;-54
2021/05/03 06:01:51;;;;;;;8.30;6.43;;;;;;;;;;4955937;29;21163;-53
2021/05/03 06:04:17;;;;;;;9.13;7.32;;;;;;;;;;4955975;29;20514;-55
2021/05/03 06:06:43;;;;;;;7.72;6.18;;;;;;;;;;4956015;29;20047;-56
2021/05/03 06:09:10;;;;;;;9.27;6.65;;;;;;;;;;4956178;29;20057;-54
2021/05/03 06:11:36;;;;;;;9.80;5.85;;;;;;;;;;4955822;29;20043;-55
2021/05/03 06:14:02;;;;;;;22.40;15.43;;;;;;;;;;4955859;29;20027;-56
2021/05/03 06:16:28;;;;;;;14.95;10.70;;;;;;;;;;4955598;28;20038;-56
2021/05/03 06:18:55;;;;;;;18.65;12.90;;;;;;;;;;4955691;29;20435;-52
2021/05/03 06:21:21;;;;;;;13.35;10.63;;;;;;;;;;4955559;29;20495;-53
2021/05/03 06:23:47;;;;;;;17.45;12.00;;;;;;;;;;4956226;29;20352;-53
2021/05/03 06:26:14;;;;;;;12.20;8.43;;;;;;;;;;4955802;28;20034;-49
2021/05/03 06:28:40;;;;;;;13.32;9.82;;;;;;;;;;4954749;28;20034;-53
2021/05/03 06:31:06;;;;;;;13.93;9.30;;;;;;;;;;4954996;29;20035;-54
2021/05/03 06:33:35;;;;;;;17.90;11.20;;;;;;;;;;4955518;29;20019;-51
2021/05/03 06:36:01;;;;;;;20.48;11.43;;;;;;;;;;4955599;29;20033;-55
2021/05/03 06:38:27;;;;;;;21.77;11.30;;;;;;;;;;4955320;28;20023;-54
2021/05/03 06:40:53;;;;;;;24.13;11.35;;;;;;;;;;4955557;29;20035;-53
2021/05/03 06:43:22;;;;;;;19.90;12.23;;;;;;;;;;4955521;29;20023;-54
2021/05/03 06:45:48;;;;;;;26.40;13.88;;;;;;;;;;4955378;28;20031;-54
2021/05/03 06:48:14;;;;;;;27.50;16.65;;;;;;;;;;4955130;29;20467;-55
2021/05/03 06:50:43;;;;;;;28.65;17.30;;;;;;;;;;4955432;29;20126;-54
2021/05/03 06:53:10;;;;;;;33.90;20.65;;;;;;;;;;4955293;28;20023;-54
2021/05/03 06:55:36;;;;;;;27.90;18.73;;;;;;;;;;4955280;29;20551;-55
2021/05/03 06:58:05;;;;;;;18.92;14.40;;;;;;;;;;4955276;29;20023;-53
2021/05/03 07:00:39;;;;;;;18.25;12.30;;;;;;;;;;4955170;28;20384;-55
2021/05/03 07:03:05;;;;;;;14.55;11.07;;;;;;;;;;4955275;29;20535;-51
2021/05/03 07:05:31;;;;;;;15.95;11.43;;;;;;;;;;4955292;29;20027;-54
2021/05/03 07:07:57;;;;;;;20.52;12.15;;;;;;;;;;4955199;29;20047;-54
2021/05/03 07:10:23;;;;;;;13.48;10.63;;;;;;;;;;4955005;29;20043;-54
2021/05/03 07:12:50;;;;;;;12.90;9.32;;;;;;;;;;4955148;29;20034;-55
2021/05/03 07:15:16;;;;;;;10.68;8.68;;;;;;;;;;4953608;29;20035;-54
2021/05/03 07:17:46;;;;;;;13.65;8.52;;;;;;;;;;4955109;28;20035;-54
2021/05/03 07:20:12;;;;;;;12.80;8.57;;;;;;;;;;4954838;29;20051;-54
2021/05/03 07:22:39;;;;;;;11.75;9.40;;;;;;;;;;4955031;29;20047;-54
2021/05/03 07:25:07;;;;;;;15.40;10.10;;;;;;;;;;4955292;29;20463;-52
2021/05/03 07:27:33;;;;;;;11.43;8.77;;;;;;;;;;4955966;28;20047;-53
2021/05/03 07:29:59;;;;;;;13.05;9.93;;;;;;;;;;4958512;29;20024;-54
2021/05/03 07:32:25;;;;;;;13.10;9.52;;;;;;;;;;4958982;29;20046;-54
2021/05/03 07:34:53;;;;;;;12.68;8.88;;;;;;;;;;4958565;29;20023;-54
2021/05/03 07:37:19;;;;;;;8.30;6.70;;;;;;;;;;4958661;29;20035;-53
2021/05/03 07:39:48;;;;;;;15.55;6.88;;;;;;;;;;4958459;29;20048;-53
2021/05/03 07:42:14;;;;;;;6.28;4.90;;;;;;;;;;4958491;28;20399;-54
2021/05/03 07:44:40;;;;;;;6.55;4.35;;;;;;;;;;4958332;29;20023;-54
2021/05/03 07:47:06;;;;;;;4.60;3.80;;;;;;;;;;4958308;29;20031;-52
2021/05/03 07:49:33;;;;;;;7.53;4.10;;;;;;;;;;4958247;29;20035;-54
2021/05/03 07:51:59;;;;;;;12.98;4.10;;;;;;;;;;4958069;29;20035;-55
2021/05/03 07:54:25;;;;;;;7.30;3.90;;;;;;;;;;4958219;29;20037;-53
2021/05/03 07:56:51;;;;;;;8.57;4.47;;;;;;;;;;4958727;29;20423;-55
2021/05/03 07:59:19;;;;;;;6.22;4.30;;;;;;;;;;4958112;28;20024;-54
2021/05/03 08:01:48;;;;;;;7.10;4.38;;;;;;;;;;4958149;29;20567;-55
2021/05/03 08:04:14;;;;;;;9.20;3.85;;;;;;;;;;4958059;29;20027;-54
2021/05/03 08:06:40;;;;;;;7.90;3.80;;;;;;;;;;4957915;29;20400;-54
2021/05/03 08:09:06;;;;;;;8.02;3.30;;;;;;;;;;4957985;29;20023;-54
2021/05/03 08:11:33;;;;;;;9.38;3.75;;;;;;;;;;4958030;29;20094;-55
2021/05/03 08:14:00;;;;;;;5.75;3.53;;;;;;;;;;4957891;29;20019;-56
2021/05/03 08:16:27;;;;;;;9.90;5.20;;;;;;;;;;4957918;29;20398;-56
2021/05/03 08:18:53;;;;;;;15.70;10.15;;;;;;;;;;4957837;29;20043;-55
2021/05/03 08:21:20;;;;;;;27.35;16.77;;;;;;;;;;4957927;29;20031;-54
2021/05/03 08:23:46;;;;;;;21.17;13.38;;;;;;;;;;4957982;29;20023;-55
2021/05/03 08:26:12;;;;;;;39.67;27.58;;;;;;;;;;4957722;29;20403;-54
2021/05/03 08:28:46;;;;;;;57.92;36.05;;;;;;;;;;4957638;28;20030;-54
2021/05/03 08:31:12;;;;;;;63.38;40.13;;;;;;;;;;4957459;29;20035;-54
2021/05/03 08:33:38;;;;;;;104.03;67.80;;;;;;;;;;4957590;29;20467;-54
2021/05/03 08:36:04;;;;;;;33.05;21.55;;;;;;;;;;4957353;29;20102;-53
2021/05/03 08:38:31;;;;;;;22.80;15.35;;;;;;;;;;4956733;28;20031;-54
2021/05/03 08:40:59;;;;;;;25.67;16.55;;;;;;;;;;4957052;28;20031;-54
2021/05/03 08:43:28;;;;;;;60.78;35.63;;;;;;;;;;4957666;28;20039;-55
2021/05/03 08:45:54;;;;;;;52.63;32.95;;;;;;;;;;4957260;29;20027;-53
2021/05/03 08:48:26;;;;;;;60.20;38.05;;;;;;;;;;4957287;29;20432;-65
2021/05/03 08:53:39;;;;;;;18.60;7.50;;;;;;;;;;4957301;29;20472;-57
2021/05/03 08:56:05;;;;;;;14.30;6.78;;;;;;;;;;4957122;29;20054;-56
2021/05/03 08:58:31;;;;;;;12.75;4.25;;;;;;;;;;4957033;28;20020;-56
2021/05/03 09:00:57;;;;;;;12.23;4.85;;;;;;;;;;4957304;28;20056;-52
2021/05/03 09:03:24;;;;;;;18.70;8.30;;;;;;;;;;4957174;29;20030;-56
2021/05/03 09:05:50;;;;;;;17.00;6.95;;;;;;;;;;4957113;28;20125;-56
2021/05/03 09:08:26;;;;;;;12.48;5.65;;;;;;;;;;4957119;29;20435;-58
2021/05/03 09:10:54;;;;;;;9.20;5.05;;;;;;;;;;4956830;29;20039;-56
2021/05/03 09:13:31;;;;;;;10.35;5.57;;;;;;;;;;4957133;28;20047;-59
2021/05/03 09:16:15;;;;;;;9.25;4.95;;;;;;;;;;4957067;29;20468;-56
2021/05/03 09:18:41;;;;;;;7.65;4.40;;;;;;;;;;4957036;28;20032;-56
2021/05/03 09:21:17;;;;;;;10.45;4.30;;;;;;;;;;4956599;29;20502;-56
2021/05/03 09:23:59;;;;;;;7.93;4.38;;;;;;;;;;4957037;29;20107;-56
2021/05/03 09:26:43;;;;;;;10.50;4.53;;;;;;;;;;4956627;29;20053;-55
2021/05/03 09:29:29;;;;;;;6.20;4.20;;;;;;;;;;4956677;29;20082;-57
2021/05/03 09:31:59;;;;;;;6.95;3.85;;;;;;;;;;4956554;29;20077;-56
2021/05/03 09:34:29;;;;;;;12.68;4.72;;;;;;;;;;4956577;29;20023;-56
2021/05/03 09:37:15;;;;;;;6.32;3.80;;;;;;;;;;4956555;28;20034;-57
2021/05/03 09:39:41;;;;;;;7.05;4.20;;;;;;;;;;4956599;29;20031;-57
2021/05/03 09:42:07;;;;;;;11.95;4.40;;;;;;;;;;4956305;29;20424;-57
2021/05/03 09:44:33;;;;;;;8.07;4.75;;;;;;;;;;4956510;28;20074;-57
2021/05/03 09:46:59;;;;;;;11.38;4.43;;;;;;;;;;4956226;29;20387;-56
2021/05/03 09:49:26;;;;;;;10.60;4.07;;;;;;;;;;4956305;28;20090;-57
2021/05/03 09:51:53;;;;;;;5.85;4.30;;;;;;;;;;4955822;28;20118;-57
2021/05/03 09:54:29;;;;;;;13.70;4.55;;;;;;;;;;4956328;28;20066;-56
2021/05/03 09:56:55;;;;;;;10.63;4.47;;;;;;;;;;4956009;28;20031;-56
2021/05/03 09:59:36;;;;;;;12.68;4.53;;;;;;;;;;4956218;28;20023;-56
2021/05/03 10:02:21;;;;;;;6.72;4.18;;;;;;;;;;4956085;28;20023;-56
2021/05/03 10:04:52;;;;;;;4.68;3.50;;;;;;;;;;4955647;29;20038;-56
2021/05/03 10:07:21;;;;;;;9.32;6.53;;;;;;;;;;4955425;29;20069;-57
2021/05/03 10:10:00;;;;;;;12.43;8.63;;;;;;;;;;4955473;29;20035;-55
2021/05/03 10:12:26;;;;;;;37.20;24.38;;;;;;;;;;4955550;29;20083;-57
2021/05/03 10:14:53;;;;;;;36.95;21.58;;;;;;;;;;4955624;29;20082;-57
2021/05/03 10:17:20;;;;;;;102.78;60.30;;;;;;;;;;4955560;29;20035;-57
2021/05/03 10:19:46;;;;;;;73.57;48.92;;;;;;;;;;4955583;29;20509;-55
2021/05/03 10:22:19;;;;;;;28.35;19.95;;;;;;;;;;4955522;28;20399;-51
2021/05/03 10:24:47;;;;;;;27.95;18.33;;;;;;;;;;4955403;29;20483;-55
2021/05/03 10:27:16;;;;;;;54.03;29.65;;;;;;;;;;4955671;28;20035;-51
2021/05/03 10:29:42;;;;;;;72.30;44.00;;;;;;;;;;4955470;29;20401;-56
2021/05/03 10:32:10;;;;;;;37.63;24.85;;;;;;;;;;4955417;29;20435;-55
2021/05/03 10:34:39;;;;;;;24.95;16.02;;;;;;;;;;4955226;29;20058;-51
2021/05/03 10:37:25;;;;;;;55.13;25.20;;;;;;;;;;4955312;28;20102;-52
2021/05/03 10:39:51;;;;;;;19.50;12.65;;;;;;;;;;4955400;29;20023;-52
2021/05/03 10:42:17;;;;;;;30.92;16.80;;;;;;;;;;4955332;28;20090;-50
2021/05/03 10:45:01;;;;;;;21.13;11.88;;;;;;;;;;4955935;29;20106;-51
2021/05/03 10:47:33;;;;;;;19.02;11.57;;;;;;;;;;4955326;29;20102;-51
2021/05/03 10:49:59;;;;;;;30.50;22.23;;;;;;;;;;4955424;29;20036;-50
2021/05/03 10:52:32;;;;;;;23.23;15.70;;;;;;;;;;4955112;28;20034;-55
2021/05/03 10:54:59;;;;;;;26.73;15.93;;;;;;;;;;4955220;29;20468;-52
2021/05/03 10:57:28;;;;;;;41.40;25.95;;;;;;;;;;4955274;29;20028;-56
2021/05/03 10:59:55;;;;;;;36.50;24.20;;;;;;;;;;4954966;29;20387;-55
2021/05/03 11:02:25;;;;;;;52.67;31.00;;;;;;;;;;4955844;28;20034;-57
2021/05/03 11:05:10;;;;;;;40.45;24.77;;;;;;;;;;4958903;29;20472;-53
2021/05/03 11:07:37;;;;;;;59.13;34.40;;;;;;;;;;4958829;28;20058;-53
2021/05/03 11:10:03;;;;;;;18.40;11.65;;;;;;;;;;4958912;29;20055;-55
2021/05/03 11:12:30;;;;;;;19.73;12.30;;;;;;;;;;4959046;29;20497;-56
2021/05/03 11:15:16;;;;;;;23.85;12.95;;;;;;;;;;4959085;28;20249;-55
2021/05/03 11:18:03;;;;;;;17.10;11.52;;;;;;;;;;4958898;29;20391;-58
2021/05/03 11:20:50;;;;;;;35.67;24.05;;;;;;;;;;4958741;29;20035;-54
2021/05/03 11:23:30;;;;;;;55.88;36.72;;;;;;;;;;4958765;29;20031;-54
2021/05/03 11:25:56;;;;;;;26.17;15.60;;;;;;;;;;4958642;28;20400;-54
2021/05/03 11:28:27;;;;;;;27.45;17.70;;;;;;;;;;4958688;29;20034;-57
2021/05/03 11:31:03;;;;;;;21.70;12.13;;;;;;;;;;4958634;29;20083;-56
2021/05/03 11:33:34;;;;;;;37.08;16.83;;;;;;;;;;4958407;28;20050;-57
2021/05/03 11:36:37;;;;;;;21.33;12.02;;;;;;;;;;4958590;29;20424;-57
2021/05/03 11:39:23;;;;;;;65.05;32.15;;;;;;;;;;4875400;29;20509;-54
2021/05/03 11:42:21;;;;;;;114.45;48.40;;;;;;;;;;4871292;29;20033;-56
2021/05/03 11:44:50;;;;;;;195.75;87.32;;;;;;;;;;4866310;29;20073;-57
2021/05/03 11:47:17;;;;;;;129.30;58.90;;;;;;;;;;4868700;29;20041;-56
2021/05/03 11:49:44;;;;;;;158.95;77.97;;;;;;;;;;4868715;29;20042;-54
2021/05/03 11:52:11;;;;;;;135.10;64.38;;;;;;;;;;4868698;29;20177;-51
2021/05/03 11:54:41;;;;;;;115.22;51.40;;;;;;;;;;4870212;29;20028;-52
2021/05/03 11:57:09;;;;;;;190.88;87.90;;;;;;;;;;4868697;29;20076;-54
2021/05/03 11:59:36;;;;;;;117.78;55.03;;;;;;;;;;4868847;29;20029;-55
2021/05/03 12:02:06;;;;;;;187.18;95.38;;;;;;;;;;4868691;29;20093;-53
2021/05/03 12:04:45;;;;;;;114.37;59.30;;;;;;;;;;4868736;29;20390;-54
2021/05/03 12:07:14;;;;;;;115.72;50.45;;;;;;;;;;4868301;29;20529;-56
2021/05/03 12:09:41;;;;;;;66.88;35.72;;;;;;;;;;4869327;29;20048;-54
2021/05/03 12:12:07;;;;;;;56.08;24.95;;;;;;;;;;4869653;29;20037;-55
2021/05/03 12:14:41;;;;;;;48.97;23.73;;;;;;;;;;4879079;28;20199;-55
2021/05/03 12:17:26;;;;;;;54.65;32.75;;;;;;;;;;4947116;28;20404;-54
2021/05/03 12:19:53;;;;;;;97.05;45.70;;;;;;;;;;4946981;28;20027;-55
2021/05/03 12:22:22;;;;;;;71.07;43.15;;;;;;;;;;4947118;28;20464;-56
2021/05/03 12:24:50;;;;;;;44.50;25.77;;;;;;;;;;4947030;28;20429;-53
2021/05/03 12:27:16;;;;;;;51.10;32.50;;;;;;;;;;4947284;28;20042;-55
2021/05/03 12:29:44;;;;;;;57.35;32.78;;;;;;;;;;4947072;28;20019;-54
2021/05/03 12:32:17;;;;;;;51.13;27.70;;;;;;;;;;4946680;28;20565;-57
2021/05/03 12:34:46;;;;;;;33.33;18.73;;;;;;;;;;4946797;28;20395;-53
2021/05/03 12:37:13;;;;;;;58.45;28.40;;;;;;;;;;4946885;28;20039;-53
2021/05/03 12:39:54;;;;;;;27.27;12.77;;;;;;;;;;4946813;28;20343;-56
2021/05/03 12:42:21;;;;;;;41.90;23.90;;;;;;;;;;4946604;28;20027;-55
2021/05/03 12:44:53;;;;;;;37.92;22.23;;;;;;;;;;4946797;28;20414;-52
2021/05/03 12:48:28;;;;;;;57.92;36.63;;;;;;;;;;4946033;28;20064;-55
2021/05/03 12:50:33;;;;;;;72.53;45.47;;;;;;;;;;4938342;28;20047;-58
2021/05/03 12:53:20;;;;;;;90.82;59.75;;;;;;;;;;4947447;28;21744;-57
2021/05/03 13:06:48;;;;;;;37.63;19.77;;;;;;;;;;4946144;28;20118;-53
2021/05/03 13:09:28;;;;;;;30.25;13.15;;;;;;;;;;4943877;28;20728;-53
2021/05/03 13:12:12;;;;;;;32.20;15.50;;;;;;;;;;4946372;28;20133;-56
2021/05/03 13:29:00;;;;;;;43.28;29.95;;;;;;;;;;4946019;28;20156;-54
2021/05/03 13:31:27;;;;;;;64.80;34.67;;;;;;;;;;4939100;28;20034;-54
2021/05/03 13:33:53;;;;;;;68.82;46.63;;;;;;;;;;4945570;28;20030;-52
2021/05/03 13:36:19;;;;;;;26.70;18.65;;;;;;;;;;4945572;28;20620;-52
2021/05/03 13:38:47;;;;;;;19.00;10.80;;;;;;;;;;4946182;28;20031;-52
2021/05/03 13:41:13;;;;;;;33.67;22.45;;;;;;;;;;4945468;28;20039;-53
2021/05/03 13:43:40;;;;;;;21.25;13.10;;;;;;;;;;4945463;28;20026;-50
2021/05/03 13:46:06;;;;;;;70.95;39.17;;;;;;;;;;4945744;28;20271;-53
2021/05/03 13:48:32;;;;;;;127.22;69.97;;;;;;;;;;4945645;28;20027;-51
2021/05/03 13:50:58;;;;;;;126.20;65.57;;;;;;;;;;4945600;28;20035;-55
2021/05/03 13:53:24;;;;;;;128.90;66.70;;;;;;;;;;4945190;28;20495;-50
2021/05/03 13:55:52;;;;;;;104.97;53.92;;;;;;;;;;4945501;28;20802;-54
2021/05/03 13:58:23;;;;;;;68.65;35.28;;;;;;;;;;4944920;28;20035;-51
2021/05/03 14:00:49;;;;;;;49.93;26.97;;;;;;;;;;4946475;28;20065;-54
2021/05/03 14:03:15;;;;;;;47.72;16.67;;;;;;;;;;4945390;28;20276;-53
2021/05/03 14:05:41;;;;;;;17.63;8.68;;;;;;;;;;4945064;28;20028;-53
2021/05/03 14:08:08;;;;;;;16.13;5.25;;;;;;;;;;4945120;28;20066;-53
2021/05/03 14:10:34;;;;;;;12.90;6.30;;;;;;;;;;4945179;28;20124;-50
2021/05/03 14:13:03;;;;;;;9.43;4.88;;;;;;;;;;4945226;28;20484;-51
2021/05/03 14:15:30;;;;;;;8.27;4.13;;;;;;;;;;4946398;28;20035;-55
2021/05/03 14:17:56;;;;;;;17.80;6.78;;;;;;;;;;4944858;28;20210;-53
2021/05/03 14:20:23;;;;;;;10.20;4.63;;;;;;;;;;4944946;28;20042;-55
2021/05/03 14:22:49;;;;;;;10.13;6.30;;;;;;;;;;4945351;28;20807;-55
2021/05/03 14:25:16;;;;;;;26.60;13.82;;;;;;;;;;4945564;28;20031;-53
2021/05/03 14:27:44;;;;;;;47.10;24.13;;;;;;;;;;4926656;28;20801;-50
2021/05/03 14:35:48;;;;;;;7.65;5.47;;;;;;;;;;4903322;29;20043;-55
2021/05/03 14:38:15;;;;;;;33.17;19.13;;;;;;;;;;4902642;29;20043;-52
2021/05/03 14:40:43;;;;;;;40.85;23.73;;;;;;;;;;4903803;29;20028;-56
2021/05/03 14:43:10;;;;;;;40.72;21.70;;;;;;;;;;4903721;29;20027;-57
2021/05/03 14:45:44;;;;;;;27.25;18.45;;;;;;;;;;4902873;29;20126;-52
2021/05/03 14:48:34;;;;;;;16.00;10.52;;;;;;;;;;4902601;29;20411;-54
2021/05/03 14:56:31;;;;;;;11.05;6.45;;;;;;;;;;4903939;29;20562;-57
2021/05/03 14:58:59;;;;;;;15.98;6.80;;;;;;;;;;4902789;29;20496;-53
2021/05/03 15:01:25;;;;;;;30.27;16.55;;;;;;;;;;4902588;29;20316;-50
2021/05/03 15:03:51;;;;;;;150.32;84.35;;;;;;;;;;4903275;29;20131;-50
2021/05/03 15:06:18;;;;;;;26.33;15.05;;;;;;;;;;4902202;29;20083;-50
2021/05/03 15:08:44;;;;;;;105.63;70.05;;;;;;;;;;4903239;29;20047;-59
2021/05/03 15:11:10;;;;;;;34.70;20.42;;;;;;;;;;4944282;28;20154;-59
2021/05/03 15:13:45;;;;;;;35.15;23.10;;;;;;;;;;4944535;28;20199;-51
2021/05/03 15:16:39;;;;;;;27.08;14.68;;;;;;;;;;4945203;28;20030;-51
2021/05/03 15:21:59;;;;;;;35.78;22.92;;;;;;;;;;4916014;29;20035;-50
2021/05/03 15:24:25;;;;;;;23.48;13.27;;;;;;;;;;4915948;29;20024;-55
2021/05/03 15:26:55;;;;;;;23.00;12.40;;;;;;;;;;4915764;29;20083;-50
2021/05/03 15:32:24;;;;;;;24.25;16.75;;;;;;;;;;4883823;29;20048;-52
2021/05/03 15:34:52;;;;;;;47.25;33.75;;;;;;;;;;4884271;29;20111;-49
2021/05/03 15:37:20;;;;;;;27.42;15.20;;;;;;;;;;4882950;29;20596;-48